createdAt,value
2019-01-04T00:00:02.046Z,1.76
2019-01-04T00:02:31.274Z,1.81
2019-01-04T00:05:00.480Z,1.88
2019-01-04T00:13:15.816Z,1.95
2019-01-04T00:15:45.387Z,1.98
2019-01-04T00:18:14.463Z,2.00
2019-01-04T00:20:43.557Z,2.02
2019-01-04T00:23:12.707Z,2.06
2019-01-04T00:25:42.749Z,2.09
2019-01-04T00:28:12.494Z,2.14
2019-01-04T00:30:41.580Z,2.18
2019-01-04T00:33:10.755Z,2.17
2019-01-04T00:35:39.873Z,2.15
2019-01-04T00:38:08.967Z,2.12
2019-01-04T00:40:38.103Z,2.10
2019-01-04T00:43:07.365Z,2.09
2019-01-04T00:45:36.506Z,2.08
2019-01-04T00:48:05.606Z,2.09
2019-01-04T00:50:34.682Z,2.10
2019-01-04T00:53:03.874Z,2.11
2019-01-04T00:55:42.375Z,2.11
2019-01-04T01:00:22.351Z,2.12
2019-01-04T01:05:10.094Z,2.13
2019-01-04T01:07:51.592Z,2.15
2019-01-04T01:10:30.382Z,2.14
2019-01-04T01:14:07.721Z,2.14
2019-01-04T01:17:49.239Z,2.14
2019-01-04T01:23:06.195Z,2.17
2019-01-04T01:25:50.194Z,2.23
2019-01-04T01:28:31.016Z,2.24
2019-01-04T01:31:14.570Z,2.25
2019-01-04T01:33:54.654Z,2.21
2019-01-04T01:36:41.330Z,2.16
2019-01-04T01:41:00.429Z,2.12
2019-01-04T01:44:48.867Z,2.02
2019-01-04T01:47:38.747Z,1.96
2019-01-04T01:50:32.624Z,1.92
2019-01-04T01:53:01.676Z,1.88
2019-01-04T01:55:30.808Z,1.83
2019-01-04T01:57:59.858Z,1.79
2019-01-04T02:00:29.047Z,1.74
2019-01-04T02:02:58.095Z,1.68
2019-01-04T02:05:27.320Z,1.66
2019-01-04T02:07:56.396Z,1.67
2019-01-04T02:10:25.414Z,1.71
2019-01-04T02:12:54.463Z,1.75
2019-01-04T02:15:23.552Z,1.76
2019-01-04T02:17:52.569Z,1.78
2019-01-04T02:20:22.610Z,1.81
2019-01-04T02:22:51.738Z,1.79
2019-01-04T02:25:20.814Z,1.80
2019-01-04T02:27:50.946Z,1.78
2019-01-04T02:30:20.175Z,1.80
2019-01-04T02:32:49.203Z,1.83
2019-01-04T02:35:18.326Z,1.83
2019-01-04T02:37:47.454Z,1.81
2019-01-04T02:40:16.486Z,1.79
2019-01-04T02:42:45.518Z,1.79
2019-01-04T02:45:14.583Z,1.77
2019-01-04T02:47:43.654Z,1.77
2019-01-04T02:50:12.737Z,1.77
2019-01-04T02:52:41.852Z,1.81
2019-01-04T02:55:10.904Z,1.84
2019-01-04T02:57:39.992Z,1.87
2019-01-04T03:00:09.365Z,1.93
2019-01-04T03:02:38.435Z,1.99
2019-01-04T03:05:07.662Z,2.04
2019-01-04T03:07:36.740Z,2.10
2019-01-04T03:10:06.185Z,2.16
2019-01-04T03:12:35.321Z,2.22
2019-01-04T03:15:04.711Z,2.26
2019-01-04T03:17:33.760Z,2.29
2019-01-04T03:20:02.795Z,2.31
2019-01-04T03:22:32.154Z,2.32
2019-01-04T03:25:01.199Z,2.32
2019-01-04T03:27:30.280Z,2.33
2019-01-04T03:29:59.899Z,2.36
2019-01-04T03:32:28.913Z,2.38
2019-01-04T03:34:57.964Z,2.40
2019-01-04T03:37:27.044Z,2.43
2019-01-04T03:39:56.215Z,2.47
2019-01-04T03:42:25.561Z,2.50
2019-01-04T03:44:54.553Z,2.51
2019-01-04T03:47:23.589Z,2.51
2019-01-04T03:49:52.658Z,2.53
2019-01-04T03:52:22.012Z,2.58
2019-01-04T03:54:51.027Z,2.64
2019-01-04T03:57:20.151Z,2.69
2019-01-04T03:59:49.218Z,2.70
2019-01-04T04:02:18.271Z,2.72
2019-01-04T04:04:47.440Z,2.68
2019-01-04T04:07:16.613Z,2.65
2019-01-04T04:09:45.636Z,2.64
2019-01-04T04:12:14.707Z,2.65
2019-01-04T04:14:44.413Z,2.63
2019-01-04T04:17:13.769Z,2.64
2019-01-04T04:19:42.893Z,2.67
2019-01-04T04:22:11.949Z,2.68
2019-01-04T04:24:41.046Z,2.70
2019-01-04T04:27:10.124Z,2.70
2019-01-04T04:29:39.235Z,2.72
2019-01-04T04:32:11.504Z,2.74
2019-01-04T04:34:40.603Z,2.74
2019-01-04T04:37:09.708Z,2.75
2019-01-04T04:39:38.784Z,2.79
2019-01-04T04:42:07.881Z,2.85
2019-01-04T04:44:36.983Z,2.90
2019-01-04T04:47:06.043Z,2.95
2019-01-04T04:49:35.158Z,3.02
2019-01-04T04:52:04.255Z,3.07
2019-01-04T04:54:33.340Z,3.10
2019-01-04T04:57:02.573Z,3.13
2019-01-04T04:59:31.739Z,3.14
2019-01-04T05:02:00.761Z,3.12
2019-01-04T05:04:29.848Z,3.08
2019-01-04T05:06:58.971Z,3.05
2019-01-04T05:09:27.980Z,3.03
2019-01-04T05:11:56.970Z,3.02
2019-01-04T05:14:26.057Z,3.01
2019-01-04T05:16:55.124Z,3.01
2019-01-04T05:19:24.127Z,3.02
2019-01-04T05:21:53.213Z,3.00
2019-01-04T05:24:22.414Z,2.99
2019-01-04T05:26:51.484Z,2.98
2019-01-04T05:29:20.617Z,2.95
2019-01-04T05:31:49.697Z,2.93
2019-01-04T05:34:19.280Z,2.91
2019-01-04T05:36:47.908Z,2.87
2019-01-04T05:39:16.996Z,2.85
2019-01-04T05:41:46.103Z,2.82
2019-01-04T05:44:15.180Z,2.79
2019-01-04T05:46:44.250Z,2.75
2019-01-04T05:49:13.338Z,2.74
2019-01-04T05:51:44.318Z,2.71
2019-01-04T05:54:13.993Z,2.69
2019-01-04T05:56:44.517Z,2.67
2019-01-04T05:59:14.968Z,2.64
2019-01-04T06:01:45.170Z,2.62
2019-01-04T06:04:14.182Z,2.60
2019-01-04T06:06:43.195Z,2.58
2019-01-04T06:09:12.197Z,2.54
2019-01-04T06:11:41.193Z,2.52
2019-01-04T06:14:10.256Z,2.49
2019-01-04T06:16:39.289Z,2.44
2019-01-04T06:19:08.328Z,2.38
2019-01-04T06:21:37.340Z,2.33
2019-01-04T06:24:06.391Z,2.29
2019-01-04T06:26:35.439Z,2.28
2019-01-04T06:29:04.530Z,2.28
2019-01-04T06:31:33.627Z,2.30
2019-01-04T06:34:02.685Z,2.29
2019-01-04T06:36:31.720Z,2.27
2019-01-04T06:39:00.881Z,2.23
2019-01-04T06:41:29.910Z,2.22
2019-01-04T06:43:59.077Z,2.18
2019-01-04T06:46:28.153Z,2.16
2019-01-04T06:48:57.284Z,2.16
2019-01-04T06:51:27.956Z,2.18
2019-01-04T06:53:55.614Z,2.17
2019-01-04T06:56:24.737Z,2.14
2019-01-04T06:58:53.814Z,2.16
2019-01-04T07:01:22.989Z,2.17
2019-01-04T07:03:52.017Z,2.15
2019-01-04T07:06:21.171Z,2.13
2019-01-04T07:08:50.259Z,2.14
2019-01-04T07:11:19.401Z,2.16
2019-01-04T07:13:48.409Z,2.19
2019-01-04T07:16:17.518Z,2.22
2019-01-04T07:18:46.546Z,2.23
2019-01-04T07:21:15.631Z,2.22
2019-01-04T07:23:44.774Z,2.22
2019-01-04T07:26:13.915Z,2.23
2019-01-04T07:28:43.176Z,2.24
2019-01-04T07:31:12.301Z,2.24
2019-01-04T07:33:41.293Z,2.23
2019-01-04T07:36:10.383Z,2.21
2019-01-04T07:38:39.567Z,2.20
2019-01-04T07:41:08.581Z,2.20
2019-01-04T07:43:37.715Z,2.19
2019-01-04T07:46:06.754Z,2.19
2019-01-04T07:48:35.857Z,2.18
2019-01-04T07:51:05.149Z,2.15
2019-01-04T07:53:35.147Z,2.12
2019-01-04T07:56:04.246Z,2.11
2019-01-04T07:58:33.289Z,2.09
2019-01-04T08:01:02.312Z,2.06
2019-01-04T08:03:31.346Z,2.03
2019-01-04T08:06:02.127Z,2.00
2019-01-04T08:08:31.163Z,1.98
2019-01-04T08:11:00.201Z,1.96
2019-01-04T08:13:29.242Z,1.94
2019-01-04T08:15:58.418Z,1.93
2019-01-04T08:18:27.590Z,1.92
2019-01-04T08:20:56.681Z,1.92
2019-01-04T08:23:25.838Z,1.91
2019-01-04T08:25:54.877Z,1.94
2019-01-04T08:28:23.967Z,1.95
2019-01-04T08:30:54.144Z,1.95
2019-01-04T08:33:23.142Z,1.96
2019-01-04T08:35:52.162Z,1.95
2019-01-04T08:38:21.192Z,1.94
2019-01-04T08:40:50.289Z,1.96
2019-01-04T08:43:19.314Z,2.00
2019-01-04T08:45:48.530Z,2.03
2019-01-04T08:48:17.555Z,2.07
2019-01-04T08:50:46.578Z,2.12
2019-01-04T08:53:15.705Z,2.18
2019-01-04T08:55:45.114Z,2.26
2019-01-04T08:58:14.497Z,2.32
2019-01-04T09:00:43.655Z,2.36
2019-01-04T09:03:12.736Z,2.41
2019-01-04T09:05:41.893Z,2.46
2019-01-04T09:08:11.011Z,2.51
2019-01-04T09:10:40.080Z,2.53
2019-01-04T09:13:09.222Z,2.60
2019-01-04T09:15:38.954Z,2.65
2019-01-04T09:18:08.026Z,2.72
2019-01-04T09:20:37.168Z,2.77
2019-01-04T09:23:06.207Z,2.85
2019-01-04T09:25:35.280Z,2.93
2019-01-04T09:28:04.596Z,2.98
2019-01-04T09:30:33.674Z,3.02
2019-01-04T09:33:03.610Z,3.08
2019-01-04T09:35:32.707Z,3.12
2019-01-04T09:38:02.110Z,3.17
2019-01-04T09:40:32.138Z,3.23
2019-01-04T09:43:01.283Z,3.28
2019-01-04T09:45:30.354Z,3.30
2019-01-04T09:47:59.483Z,3.36
2019-01-04T09:50:28.505Z,3.43
2019-01-04T09:52:57.638Z,3.51
2019-01-04T09:55:27.715Z,3.58
2019-01-04T09:57:56.902Z,3.64
2019-01-04T10:00:26.571Z,3.63
2019-01-04T10:02:55.086Z,3.63
2019-01-04T10:05:24.822Z,3.65
2019-01-04T10:07:54.039Z,3.66
2019-01-04T10:10:23.322Z,3.68
2019-01-04T10:12:52.579Z,3.74
2019-01-04T10:15:21.667Z,3.82
2019-01-04T10:17:50.693Z,3.89
2019-01-04T10:20:20.240Z,3.97
2019-01-04T10:22:49.328Z,4.05
2019-01-04T10:25:18.458Z,4.10
2019-01-04T10:27:47.699Z,4.16
2019-01-04T10:30:24.336Z,4.20
2019-01-04T10:32:53.527Z,4.24
2019-01-04T10:35:22.902Z,4.30
2019-01-04T10:37:51.973Z,4.37
2019-01-04T10:40:21.557Z,4.43
2019-01-04T10:42:50.698Z,4.47
2019-01-04T10:45:19.919Z,4.53
2019-01-04T10:47:49.190Z,4.57
2019-01-04T10:50:18.574Z,4.60
2019-01-04T10:52:47.913Z,4.65
2019-01-04T10:55:17.362Z,4.67
2019-01-04T10:57:47.009Z,4.72
2019-01-04T11:00:16.331Z,4.76
2019-01-04T11:02:45.504Z,4.78
2019-01-04T11:05:14.711Z,4.81
2019-01-04T11:07:43.884Z,4.84
2019-01-04T11:10:13.030Z,4.87
2019-01-04T11:12:42.275Z,4.91
2019-01-04T11:15:11.500Z,4.95
2019-01-04T11:17:40.612Z,4.99
2019-01-04T11:20:36.841Z,5.02
2019-01-04T11:23:14.946Z,5.06
2019-01-04T11:26:19.203Z,5.09
2019-01-04T11:29:29.144Z,5.12
2019-01-04T11:32:06.950Z,5.15
2019-01-04T11:34:49.740Z,5.17
2019-01-04T11:37:28.841Z,5.21
2019-01-04T11:40:44.854Z,5.24
2019-01-04T11:43:26.519Z,5.26
2019-01-04T11:46:14.965Z,5.28
2019-01-04T11:49:00.789Z,5.32
2019-01-04T11:51:53.093Z,5.34
2019-01-04T11:54:28.208Z,5.38
2019-01-04T11:56:58.266Z,5.40
2019-01-04T11:59:30.238Z,5.44
2019-01-04T12:02:00.463Z,5.46
2019-01-04T12:04:29.523Z,5.48
2019-01-04T12:06:59.771Z,5.49
2019-01-04T12:09:29.687Z,5.50
2019-01-04T12:12:03.573Z,5.52
2019-01-04T12:14:41.240Z,5.53
2019-01-04T12:17:06.117Z,5.56
2019-01-04T12:19:35.527Z,5.59
2019-01-04T12:22:05.486Z,5.61
2019-01-04T12:24:35.566Z,5.61
2019-01-04T12:27:05.005Z,5.64
2019-01-04T12:29:34.874Z,5.66
2019-01-04T12:32:04.148Z,5.67
2019-01-04T12:34:33.346Z,5.69
2019-01-04T12:37:02.516Z,5.71
2019-01-04T12:39:31.746Z,5.72
2019-01-04T12:42:01.015Z,5.73
2019-01-04T12:44:30.149Z,5.74
2019-01-04T12:46:59.292Z,5.76
2019-01-04T12:49:28.748Z,5.79
2019-01-04T12:51:57.842Z,5.81
2019-01-04T12:54:30.151Z,5.85
2019-01-04T12:57:00.346Z,5.88
2019-01-04T12:59:29.516Z,5.92
2019-01-04T13:02:02.941Z,5.94
2019-01-04T13:04:32.679Z,5.99
2019-01-04T13:07:03.336Z,5.99
2019-01-04T13:09:32.698Z,6.00
2019-01-04T13:12:01.789Z,6.00
2019-01-04T13:14:32.055Z,6.03
2019-01-04T13:17:01.279Z,6.07
2019-01-04T13:19:31.294Z,6.10
2019-01-04T13:22:00.386Z,6.13
2019-01-04T13:24:29.613Z,6.16
2019-01-04T13:26:59.026Z,6.17
2019-01-04T13:29:28.309Z,6.17
2019-01-04T13:31:57.578Z,6.18
2019-01-04T13:34:26.781Z,6.19
2019-01-04T13:36:56.083Z,6.21
2019-01-04T13:39:25.642Z,6.24
2019-01-04T13:41:54.888Z,6.25
2019-01-04T13:44:24.069Z,6.26
2019-01-04T13:46:53.398Z,6.28
2019-01-04T13:49:23.311Z,6.28
2019-01-04T13:51:52.437Z,6.26
2019-01-04T13:54:21.841Z,6.26
2019-01-04T13:56:50.976Z,6.25
2019-01-04T13:59:20.814Z,6.25
2019-01-04T14:01:49.942Z,6.26
2019-01-04T14:04:19.254Z,6.27
2019-01-04T14:06:48.447Z,6.30
2019-01-04T14:09:18.121Z,6.32
2019-01-04T14:11:47.247Z,6.32
2019-01-04T14:14:16.629Z,6.32
2019-01-04T14:16:45.691Z,6.34
2019-01-04T14:19:15.930Z,6.33
2019-01-04T14:21:45.076Z,6.33
2019-01-04T14:24:14.171Z,6.31
2019-01-04T14:26:43.973Z,6.31
2019-01-04T14:29:13.075Z,6.30
2019-01-04T14:31:46.506Z,6.28
2019-01-04T14:34:15.770Z,6.27
2019-01-04T14:36:45.147Z,6.28
2019-01-04T14:39:14.324Z,6.30
2019-01-04T14:41:44.402Z,6.31
2019-01-04T14:44:14.064Z,6.32
2019-01-04T14:46:43.181Z,6.34
2019-01-04T14:49:12.558Z,6.35
2019-01-04T14:51:41.827Z,6.35
2019-01-04T14:54:11.426Z,6.34
2019-01-04T14:56:40.779Z,6.34
2019-01-04T14:59:09.847Z,6.34
2019-01-04T15:01:45.588Z,6.34
2019-01-04T15:04:14.784Z,6.36
2019-01-04T15:06:44.010Z,6.37
2019-01-04T15:09:13.534Z,6.38
2019-01-04T15:11:42.811Z,6.39
2019-01-04T15:14:11.967Z,6.40
2019-01-04T15:16:41.145Z,6.43
2019-01-04T15:19:10.497Z,6.44
2019-01-04T15:21:40.394Z,6.43
2019-01-04T15:24:09.950Z,6.41
2019-01-04T15:26:40.168Z,6.39
2019-01-04T15:29:09.516Z,6.39
2019-01-04T15:31:38.802Z,6.38
2019-01-04T15:34:07.972Z,6.37
2019-01-04T15:36:37.930Z,6.34
2019-01-04T15:39:09.620Z,6.32
2019-01-04T15:41:38.920Z,6.30
2019-01-04T15:44:08.169Z,6.27
2019-01-04T15:46:38.164Z,6.28
2019-01-04T15:49:07.313Z,6.28
2019-01-04T15:51:36.367Z,6.27
2019-01-04T15:54:06.061Z,6.28
2019-01-04T15:56:35.364Z,6.26
2019-01-04T15:59:04.543Z,6.25
2019-01-04T16:01:33.728Z,6.25
2019-01-04T16:04:02.973Z,6.25
2019-01-04T16:06:32.275Z,6.27
2019-01-04T16:09:01.636Z,6.26
2019-01-04T16:11:31.179Z,6.26
2019-01-04T16:14:00.657Z,6.26
2019-01-04T16:16:29.965Z,6.25
2019-01-04T16:19:02.520Z,6.24
2019-01-04T16:21:31.904Z,6.21
2019-01-04T16:24:02.018Z,6.18
2019-01-04T16:26:32.164Z,6.16
2019-01-04T16:29:01.972Z,6.16
2019-01-04T16:31:31.484Z,6.16
2019-01-04T16:34:00.895Z,6.13
2019-01-04T16:36:30.028Z,6.11
2019-01-04T16:38:59.221Z,6.10
2019-01-04T16:41:28.682Z,6.09
2019-01-04T16:43:58.203Z,6.10
2019-01-04T16:46:27.451Z,6.10
2019-01-04T16:48:56.618Z,6.09
2019-01-04T16:51:25.885Z,6.08
2019-01-04T16:53:55.323Z,6.08
2019-01-04T16:56:24.391Z,6.07
2019-01-04T16:58:54.139Z,6.05
2019-01-04T17:01:23.833Z,6.05
2019-01-04T17:03:52.899Z,6.04
2019-01-04T17:06:22.203Z,6.01
2019-01-04T17:08:51.281Z,6.01
2019-01-04T17:11:21.417Z,6.01
2019-01-04T17:13:50.810Z,6.02
2019-01-04T17:16:20.068Z,6.02
2019-01-04T17:18:49.191Z,6.02
2019-01-04T17:21:18.430Z,6.01
2019-01-04T17:23:48.295Z,6.02
2019-01-04T17:26:17.423Z,5.99
2019-01-04T17:28:46.475Z,5.95
2019-01-04T17:31:15.539Z,5.92
2019-01-04T17:33:44.578Z,5.91
2019-01-04T17:36:13.826Z,5.90
2019-01-04T17:38:44.859Z,5.90
2019-01-04T17:41:15.245Z,5.89
2019-01-04T17:43:44.602Z,5.87
2019-01-04T17:46:13.819Z,5.86
2019-01-04T17:48:42.873Z,5.85
2019-01-04T17:51:11.967Z,5.84
2019-01-04T17:53:42.249Z,5.83
2019-01-04T17:56:11.320Z,5.82
2019-01-04T17:58:40.373Z,5.80
2019-01-04T18:01:09.491Z,5.81
2019-01-04T18:03:38.636Z,5.81
2019-01-04T18:06:07.792Z,5.80
2019-01-04T18:08:36.858Z,5.80
2019-01-04T18:11:05.927Z,5.79
2019-01-04T18:13:39.991Z,5.79
2019-01-04T18:16:09.225Z,5.77
2019-01-04T18:18:38.309Z,5.76
2019-01-04T18:21:07.442Z,5.74
2019-01-04T18:23:36.548Z,5.73
2019-01-04T18:26:05.637Z,5.72
2019-01-04T18:28:34.643Z,5.72
2019-01-04T18:31:03.823Z,5.71
2019-01-04T18:33:32.873Z,5.71
2019-01-04T18:36:01.929Z,5.70
2019-01-04T18:38:31.158Z,5.70
2019-01-04T18:41:00.220Z,5.71
2019-01-04T18:43:29.353Z,5.72
2019-01-04T18:45:58.419Z,5.72
2019-01-04T18:48:27.477Z,5.73
2019-01-04T18:50:56.606Z,5.72
2019-01-04T18:53:26.382Z,5.70
2019-01-04T18:55:55.524Z,5.68
2019-01-04T18:58:24.574Z,5.67
2019-01-04T19:00:53.600Z,5.67
2019-01-04T19:03:22.752Z,5.66
2019-01-04T19:05:51.884Z,5.67
2019-01-04T19:08:20.990Z,5.67
2019-01-04T19:10:50.078Z,5.67
2019-01-04T19:13:19.182Z,5.68
2019-01-04T19:15:48.279Z,5.68
2019-01-04T19:18:17.385Z,5.68
2019-01-04T19:20:46.496Z,5.67
2019-01-04T19:23:16.072Z,5.68
2019-01-04T19:25:45.206Z,5.68
2019-01-04T19:28:14.269Z,5.70
2019-01-04T19:30:43.330Z,5.72
2019-01-04T19:33:12.450Z,5.71
2019-01-04T19:35:41.576Z,5.69
2019-01-04T19:38:11.366Z,5.68
2019-01-04T19:40:40.838Z,5.66
2019-01-04T19:43:09.907Z,5.67
2019-01-04T19:45:38.963Z,5.66
2019-01-04T19:48:08.063Z,5.66
2019-01-04T19:50:37.136Z,5.65
2019-01-04T19:53:06.245Z,5.64
2019-01-04T19:55:35.413Z,5.64
2019-01-04T19:58:04.650Z,5.64
2019-01-04T20:00:33.846Z,5.64
2019-01-04T20:03:02.907Z,5.62
2019-01-04T20:06:35.508Z,5.63
2019-01-04T20:11:33.571Z,5.63
2019-01-04T20:14:19.876Z,5.64
2019-01-04T20:17:02.417Z,5.63
2019-01-04T20:19:36.637Z,5.61
2019-01-04T20:22:10.679Z,5.61
2019-01-04T20:24:50.410Z,5.61
2019-01-04T20:28:32.282Z,5.60
2019-01-04T20:31:06.603Z,5.57
2019-01-04T20:33:57.607Z,5.56
2019-01-04T20:37:34.502Z,5.54
2019-01-04T20:40:08.858Z,5.55
2019-01-04T20:42:41.956Z,5.54
2019-01-04T20:45:16.273Z,5.54
2019-01-04T20:49:53.047Z,5.54
2019-01-04T20:52:26.136Z,5.55
2019-01-04T20:55:00.299Z,5.53
2019-01-04T20:59:40.178Z,5.53
2019-01-04T21:03:17.159Z,5.51
2019-01-04T21:06:27.385Z,5.49
2019-01-04T21:10:03.127Z,5.49
2019-01-04T21:14:41.248Z,5.48
2019-01-04T21:17:23.269Z,5.43
2019-01-04T21:22:02.542Z,5.42
2019-01-04T21:25:39.127Z,5.43
2019-01-04T21:28:13.181Z,5.44
2019-01-04T21:32:49.304Z,5.45
2019-01-04T21:35:57.656Z,5.50
2019-01-04T21:38:32.152Z,5.50
2019-01-04T21:41:10.321Z,5.52
2019-01-04T21:45:47.384Z,5.52
2019-01-04T21:48:22.157Z,5.51
2019-01-04T21:51:32.550Z,5.50
2019-01-04T21:54:06.640Z,5.49
2019-01-04T21:56:44.771Z,5.49
2019-01-04T21:59:50.414Z,5.48
2019-01-04T22:04:30.126Z,5.46
2019-01-04T22:07:04.193Z,5.43
2019-01-04T22:10:36.281Z,5.42
2019-01-04T22:13:10.333Z,5.39
2019-01-04T22:15:43.421Z,5.39
2019-01-04T22:18:17.699Z,5.39
2019-01-04T22:21:49.635Z,5.37
2019-01-04T22:24:23.720Z,5.35
2019-01-04T22:27:14.926Z,5.30
2019-01-04T22:31:51.671Z,5.26
2019-01-04T22:34:27.794Z,5.17
2019-01-04T22:37:06.854Z,5.13
2019-01-04T22:39:44.851Z,5.10
2019-01-04T22:42:19.041Z,5.09
2019-01-04T22:45:53.868Z,5.09
2019-01-04T22:48:27.991Z,5.07
2019-01-04T22:51:06.231Z,5.07
2019-01-04T22:54:10.707Z,5.09
2019-01-04T22:56:47.758Z,5.07
2019-01-04T22:59:22.044Z,5.06
2019-01-04T23:01:56.163Z,5.05
2019-01-04T23:04:32.239Z,4.98
2019-01-04T23:07:06.295Z,4.96
2019-01-04T23:09:41.490Z,4.96
2019-01-04T23:12:17.521Z,4.96
2019-01-04T23:14:51.736Z,4.91
2019-01-04T23:17:26.772Z,4.84
2019-01-04T23:22:08.362Z,4.79
2019-01-04T23:24:42.525Z,4.73
2019-01-04T23:27:16.786Z,4.67
2019-01-04T23:29:51.883Z,4.63
2019-01-04T23:32:30.063Z,4.63
2019-01-04T23:35:04.458Z,4.65
2019-01-04T23:37:56.838Z,4.69
2019-01-04T23:40:31.837Z,4.70
2019-01-04T23:43:06.000Z,4.70
2019-01-04T23:45:56.771Z,4.71
2019-01-04T23:48:32.675Z,4.73
2019-01-04T23:51:11.867Z,4.75
2019-01-04T23:53:46.772Z,4.74
2019-01-04T23:57:18.731Z,4.69
2019-01-04T23:59:52.767Z,4.67
